Time;durP1;ratioP1;P1;durP2;ratioP2;P2;SDS_P1;SDS_P2;PMS_P1;PMS_P2;Temp;Humidity;BMP_temperature;BMP_pressure;BME280_temperature;BME280_humidity;BME280_pressure;Samples;Min_cycle;Max_cycle;Signal;HPM_P1;HPM_P2
2022/03/29 00:01:04;;;;;;;13.67;5.13;;;;;;;1.45;100.00;99818.27;1711674;84;21549;-69
2022/03/29 00:03:32;;;;;;;14.50;4.77;;;;;;;1.44;100.00;99809.44;1711588;84;20997;-70
2022/03/29 00:06:00;;;;;;;13.90;5.00;;;;;;;1.43;100.00;99809.06;1711534;84;21005;-69
2022/03/29 00:08:29;;;;;;;15.10;5.00;;;;;;;1.43;100.00;99798.90;1711423;82;21554;-70
2022/03/29 00:10:57;;;;;;;15.33;4.73;;;;;;;1.41;100.00;99801.67;1711464;84;21022;-69
2022/03/29 00:13:26;;;;;;;17.57;4.90;;;;;;;1.40;100.00;99793.33;1711616;84;21513;-70
2022/03/29 00:15:54;;;;;;;18.60;5.40;;;;;;;1.38;100.00;99800.60;1711483;84;21048;-69
2022/03/29 00:18:22;;;;;;;14.77;5.10;;;;;;;1.36;100.00;99791.85;1711606;84;21005;-71
2022/03/29 00:20:51;;;;;;;12.63;4.70;;;;;;;1.35;100.00;99783.52;1719983;83;21104;-69
2022/03/29 00:23:19;;;;;;;13.87;4.77;;;;;;;1.33;100.00;99782.78;1702399;83;21077;-69
2022/03/29 00:25:47;;;;;;;17.70;5.77;;;;;;;1.32;100.00;99775.75;1700550;83;21033;-69
2022/03/29 00:28:14;;;;;;;11.27;4.90;;;;;;;1.30;100.00;99771.03;1720767;83;21064;-69
2022/03/29 00:30:43;;;;;;;15.20;4.90;;;;;;;1.29;100.00;99766.19;1720503;83;21049;-71
2022/03/29 00:33:10;;;;;;;10.53;4.20;;;;;;;1.26;100.00;99758.43;1720853;83;21499;-70
2022/03/29 00:35:39;;;;;;;14.37;4.87;;;;;;;1.24;100.00;99755.50;1720729;83;21522;-71
2022/03/29 00:38:07;;;;;;;12.87;5.37;;;;;;;1.20;100.00;99757.55;1720651;83;21054;-69
2022/03/29 00:40:36;;;;;;;14.33;4.37;;;;;;;1.18;100.00;99751.99;1720825;83;21034;-70
2022/03/29 00:43:05;;;;;;;12.37;4.33;;;;;;;1.14;100.00;99754.88;1720900;83;21062;-69
2022/03/29 00:45:32;;;;;;;14.40;4.40;;;;;;;1.12;100.00;99752.83;1720487;83;21057;-69
2022/03/29 00:48:00;;;;;;;10.73;3.67;;;;;;;1.11;100.00;99753.78;1721200;83;21034;-69
2022/03/29 00:50:27;;;;;;;14.30;4.23;;;;;;;1.09;100.00;99754.39;1751324;82;21065;-69
2022/03/29 00:52:54;;;;;;;11.23;4.37;;;;;;;1.08;100.00;99767.36;1753616;82;21042;-70
2022/03/29 00:55:22;;;;;;;13.13;4.27;;;;;;;1.08;100.00;99752.70;1714688;83;21566;-69
2022/03/29 00:57:50;;;;;;;11.17;4.00;;;;;;;1.08;100.00;99752.70;1714486;84;21511;-70
2022/03/29 01:00:17;;;;;;;12.77;3.80;;;;;;;1.07;100.00;99746.16;1714278;83;21049;-69
2022/03/29 01:02:44;;;;;;;13.43;3.80;;;;;;;1.07;100.00;99743.50;1714619;83;21487;-70
2022/03/29 01:05:12;;;;;;;11.43;3.73;;;;;;;1.09;100.00;99732.24;1714460;84;21050;-69
2022/03/29 01:07:40;;;;;;;13.50;3.90;;;;;;;1.08;100.00;99734.53;1714337;84;21097;-70
2022/03/29 01:10:09;;;;;;;12.50;3.67;;;;;;;1.08;100.00;99730.08;1694421;84;21066;-70
2022/03/29 01:12:37;;;;;;;11.77;4.27;;;;;;;1.08;100.00;99723.88;1694585;84;21095;-69
2022/03/29 01:15:08;;;;;;;14.17;3.60;;;;;;;1.08;100.00;99722.08;1660489;85;21105;-69
2022/03/29 01:17:38;;;;;;;13.70;3.87;;;;;;;1.08;100.00;99718.55;1646161;87;21530;-70
2022/03/29 01:20:27;;;;;;;11.67;3.60;;;;;;;1.08;100.00;99718.09;1640350;86;21022;-70
2022/03/29 01:22:55;;;;;;;12.87;3.53;;;;;;;1.09;100.00;99718.44;1635651;88;21073;-70
2022/03/29 01:25:28;;;;;;;9.60;3.30;;;;;;;1.09;100.00;99713.60;1635507;88;21634;-70
2022/03/29 01:27:56;;;;;;;12.60;4.30;;;;;;;1.08;100.00;99710.56;1635621;88;21515;-69
2022/03/29 01:30:23;;;;;;;10.20;3.67;;;;;;;1.08;100.00;99713.22;1635692;88;20995;-70
2022/03/29 01:32:52;;;;;;;13.40;4.13;;;;;;;1.07;100.00;99715.05;1635442;88;21078;-70
2022/03/29 01:35:22;;;;;;;9.17;3.70;;;;;;;1.06;100.00;99708.05;1635721;88;21604;-70
2022/03/29 01:37:51;;;;;;;15.63;4.23;;;;;;;1.07;100.00;99708.88;1533991;92;21078;-70
2022/03/29 01:40:20;;;;;;;10.57;3.77;;;;;;;1.05;100.00;99718.31;1553016;92;21075;-69
2022/03/29 01:42:52;;;;;;;9.97;3.97;;;;;;;1.05;100.00;99714.33;1552873;92;21126;-69
2022/03/29 01:45:21;;;;;;;7.90;3.50;;;;;;;1.04;100.00;99712.61;1553019;92;21554;-69
2022/03/29 01:47:49;;;;;;;7.53;3.40;;;;;;;1.05;100.00;99709.48;1553054;92;21129;-69
2022/03/29 01:50:17;;;;;;;11.50;3.77;;;;;;;1.02;100.00;99709.23;1574999;89;21060;-69
2022/03/29 01:52:46;;;;;;;11.03;3.50;;;;;;;1.00;100.00;99701.84;1581182;91;21613;-69
2022/03/29 01:55:20;;;;;;;7.60;3.53;;;;;;;0.99;100.00;99689.98;1553005;92;21093;-69
2022/03/29 01:57:49;;;;;;;12.20;3.80;;;;;;;0.97;100.00;99682.59;1552854;92;21087;-69
2022/03/29 02:00:38;;;;;;;13.13;3.97;;;;;;;0.97;100.00;99685.26;1552859;92;21086;-70
2022/03/29 02:03:06;;;;;;;16.67;4.23;;;;;;;0.97;100.00;99683.93;1553092;92;21646;-69
2022/03/29 02:05:34;;;;;;;14.30;4.20;;;;;;;0.99;100.00;99673.52;1552961;92;21066;-69
2022/03/29 02:08:03;;;;;;;10.43;4.03;;;;;;;0.99;100.00;99669.52;1553040;92;21563;-69
2022/03/29 02:10:32;;;;;;;15.17;4.43;;;;;;;1.00;100.00;99663.73;1552857;92;21122;-69
2022/03/29 02:12:59;;;;;;;11.73;4.57;;;;;;;0.99;100.00;99664.19;1554111;92;21098;-70
2022/03/29 02:15:29;;;;;;;15.10;4.30;;;;;;;0.98;100.00;99669.17;1608807;89;21096;-69
2022/03/29 02:17:58;;;;;;;14.90;4.80;;;;;;;0.97;100.00;99655.48;1610687;89;21600;-70
2022/03/29 02:20:27;;;;;;;14.93;4.60;;;;;;;0.96;100.00;99648.48;1611716;88;21572;-68
2022/03/29 02:22:55;;;;;;;14.37;5.00;;;;;;;0.95;100.00;99651.60;1612868;89;21087;-69
2022/03/29 02:25:22;;;;;;;16.57;5.07;;;;;;;0.95;100.00;99644.95;1612661;89;21103;-70
2022/03/29 02:27:51;;;;;;;16.10;4.97;;;;;;;0.95;100.00;99647.61;1612690;89;21083;-70
2022/03/29 02:30:19;;;;;;;13.03;5.00;;;;;;;0.94;100.00;99635.78;1613031;89;21072;-69
2022/03/29 02:32:46;;;;;;;16.33;4.40;;;;;;;0.93;100.00;99627.41;1612568;89;21079;-70
2022/03/29 02:35:14;;;;;;;12.53;4.40;;;;;;;0.92;100.00;99633.23;1698096;83;21512;-69
2022/03/29 02:37:43;;;;;;;17.97;5.07;;;;;;;0.92;100.00;99640.34;1696108;83;21053;-69
2022/03/29 02:40:13;;;;;;;13.60;4.40;;;;;;;0.91;100.00;99638.67;1723914;83;21054;-70
2022/03/29 02:42:45;;;;;;;13.33;4.50;;;;;;;0.89;100.00;99638.78;1724345;83;21033;-70
2022/03/29 02:45:16;;;;;;;11.85;4.55;;;;;;;0.87;100.00;99631.41;1724590;83;21057;-70
2022/03/29 02:47:47;;;;;;;14.28;4.45;;;;;;;0.85;100.00;99612.05;1724451;83;21030;-69
2022/03/29 02:50:14;;;;;;;16.57;4.50;;;;;;;0.82;100.00;99614.94;1700904;83;21070;-70
2022/03/29 02:52:52;;;;;;;14.93;4.70;;;;;;;0.82;100.00;99614.10;1730438;83;21080;-69
2022/03/29 02:55:22;;;;;;;13.87;4.10;;;;;;;0.83;100.00;99619.77;1701670;84;21564;-69
2022/03/29 02:57:49;;;;;;;18.67;4.87;;;;;;;0.82;100.00;99616.27;1701577;84;21573;-70
2022/03/29 03:00:17;;;;;;;13.97;4.60;;;;;;;0.82;100.00;99607.45;1701265;84;21093;-69
2022/03/29 03:02:49;;;;;;;15.90;4.50;;;;;;;0.80;100.00;99611.55;1701237;84;21041;-69
2022/03/29 03:05:17;;;;;;;14.77;4.27;;;;;;;0.80;100.00;99601.37;1667700;85;21109;-70
2022/03/29 03:07:44;;;;;;;10.10;3.43;;;;;;;0.79;100.00;99602.36;1668089;86;21125;-70
2022/03/29 03:10:12;;;;;;;19.00;4.10;;;;;;;0.80;100.00;99604.03;1668283;86;21574;-69
2022/03/29 03:12:43;;;;;;;12.80;3.50;;;;;;;0.79;100.00;99609.01;1668186;86;21045;-69
2022/03/29 03:15:12;;;;;;;12.37;3.90;;;;;;;0.78;100.00;99596.19;1668187;86;21081;-69
2022/03/29 03:17:39;;;;;;;11.83;3.87;;;;;;;0.78;100.00;99592.20;1668121;86;21038;-70
2022/03/29 03:20:08;;;;;;;13.50;3.40;;;;;;;0.78;100.00;99590.00;1656431;85;21117;-70
2022/03/29 03:22:39;;;;;;;15.63;3.80;;;;;;;0.77;100.00;99588.33;1633456;86;21547;-71
2022/03/29 03:25:07;;;;;;;15.63;4.27;;;;;;;0.74;100.00;99581.41;1633614;88;21600;-69
2022/03/29 03:27:35;;;;;;;13.97;3.93;;;;;;;0.75;100.00;99584.45;1633207;88;21615;-71
2022/03/29 03:30:06;;;;;;;14.20;4.30;;;;;;;0.76;100.00;99582.13;1633124;88;21082;-69
2022/03/29 03:32:35;;;;;;;12.23;3.95;;;;;;;0.78;100.00;99578.02;1633433;88;21097;-68
2022/03/29 03:35:04;;;;;;;13.47;4.30;;;;;;;0.79;100.00;99573.08;1633268;88;21090;-69
2022/03/29 03:37:33;;;;;;;16.47;3.80;;;;;;;0.79;100.00;99578.40;1633357;88;21101;-70
2022/03/29 03:40:03;;;;;;;15.10;4.10;;;;;;;0.80;100.00;99579.61;1633400;88;20994;-70
2022/03/29 03:42:31;;;;;;;11.90;3.83;;;;;;;0.82;100.00;99578.17;1624588;88;21103;-70
2022/03/29 03:44:59;;;;;;;10.30;4.00;;;;;;;0.83;100.00;99571.36;1597106;86;21400;-70
2022/03/29 03:47:26;;;;;;;16.60;4.13;;;;;;;0.84;100.00;99568.24;1624809;88;21508;-70
2022/03/29 03:49:54;;;;;;;12.97;3.80;;;;;;;0.85;100.00;99569.92;1642905;87;21383;-70
2022/03/29 03:52:22;;;;;;;12.80;3.90;;;;;;;0.86;100.00;99573.80;1618815;87;21567;-69
2022/03/29 03:54:49;;;;;;;16.90;4.63;;;;;;;0.87;100.00;99565.34;1617535;87;21100;-69
2022/03/29 03:57:17;;;;;;;14.50;3.93;;;;;;;0.88;100.00;99567.02;1611021;88;21060;-70
2022/03/29 03:59:48;;;;;;;13.57;3.57;;;;;;;0.90;100.00;99562.42;1611255;89;21046;-69
2022/03/29 04:02:15;;;;;;;13.97;3.70;;;;;;;0.92;100.00;99568.00;1624481;88;21102;-68
2022/03/29 04:04:44;;;;;;;13.20;4.03;;;;;;;0.94;100.00;99558.08;1633797;88;21097;-70
2022/03/29 04:07:11;;;;;;;13.90;4.20;;;;;;;0.97;100.00;99562.30;1632405;88;22398;-70
2022/03/29 04:09:39;;;;;;;15.57;4.63;;;;;;;0.99;100.00;99566.17;1632554;88;21034;-70
2022/03/29 04:12:08;;;;;;;14.97;3.80;;;;;;;1.01;100.00;99560.23;1632268;88;21109;-70
2022/03/29 04:14:37;;;;;;;16.27;4.53;;;;;;;1.04;100.00;99560.84;1632561;88;21104;-68
2022/03/29 04:17:06;;;;;;;14.63;3.60;;;;;;;1.05;100.00;99563.88;1632415;88;21078;-69
2022/03/29 04:19:33;;;;;;;9.47;3.67;;;;;;;1.09;100.00;99561.33;1632959;86;21101;-69
2022/03/29 04:22:00;;;;;;;14.37;5.00;;;;;;;1.13;100.00;99557.47;1669392;86;21044;-70
2022/03/29 04:24:28;;;;;;;16.20;4.00;;;;;;;1.18;100.00;99562.41;1669460;86;21025;-69
2022/03/29 04:26:56;;;;;;;14.97;4.10;;;;;;;1.26;100.00;99563.15;1647151;86;21048;-68
2022/03/29 04:29:23;;;;;;;16.37;4.20;;;;;;;1.32;100.00;99561.30;1669461;86;21084;-69
2022/03/29 04:31:53;;;;;;;12.53;3.70;;;;;;;1.40;100.00;99572.66;1669400;86;21088;-70
2022/03/29 04:34:20;;;;;;;11.60;3.70;;;;;;;1.48;100.00;99561.75;1669671;86;21024;-70
2022/03/29 04:36:50;;;;;;;15.73;3.83;;;;;;;1.55;100.00;99571.92;1669314;86;21064;-70
2022/03/29 04:39:17;;;;;;;15.93;3.70;;;;;;;1.62;100.00;99559.80;1684210;84;21087;-70
2022/03/29 04:41:46;;;;;;;12.33;3.90;;;;;;;1.71;100.00;99569.20;1699043;84;21064;-68
2022/03/29 04:44:13;;;;;;;13.20;3.80;;;;;;;1.79;100.00;99571.72;1699526;84;21040;-70
2022/03/29 04:46:40;;;;;;;14.57;4.37;;;;;;;1.85;100.00;99569.89;1698828;84;21054;-70
2022/03/29 04:49:07;;;;;;;13.63;4.07;;;;;;;1.93;100.00;99569.25;1720490;81;21061;-69
2022/03/29 04:51:36;;;;;;;16.07;3.83;;;;;;;2.00;100.00;99565.09;1767083;81;21033;-70
2022/03/29 04:54:04;;;;;;;15.73;3.80;;;;;;;2.07;100.00;99563.61;1741395;81;21072;-70
2022/03/29 04:56:33;;;;;;;14.27;4.27;;;;;;;2.18;100.00;99568.05;1719079;83;21068;-69
2022/03/29 04:59:00;;;;;;;12.63;3.63;;;;;;;2.25;100.00;99568.75;1719120;83;21033;-70
2022/03/29 05:01:29;;;;;;;20.67;6.90;;;;;;;2.36;100.00;99564.33;1718889;83;21016;-70
2022/03/29 05:03:56;;;;;;;16.90;4.13;;;;;;;2.45;100.00;99563.05;1692808;83;21076;-69
2022/03/29 05:06:23;;;;;;;15.47;4.13;;;;;;;2.56;100.00;99567.97;1719426;83;21111;-69
2022/03/29 05:08:50;;;;;;;12.90;3.90;;;;;;;2.66;100.00;99564.87;1719432;83;21060;-72
2022/03/29 05:11:18;;;;;;;14.27;3.73;;;;;;;2.76;100.00;99555.56;1719043;83;21064;-69
2022/03/29 05:13:45;;;;;;;14.10;4.27;;;;;;;2.85;100.00;99563.63;1719255;83;21037;-68
2022/03/29 05:16:12;;;;;;;14.10;3.80;;;;;;;2.96;100.00;99560.52;1718722;83;21092;-69
2022/03/29 05:18:42;;;;;;;14.80;4.37;;;;;;;3.11;100.00;99554.31;1717677;83;21080;-70
2022/03/29 05:21:12;;;;;;;17.93;3.90;;;;;;;3.22;100.00;99563.55;1710255;83;21085;-69
2022/03/29 05:23:39;;;;;;;13.63;4.10;;;;;;;3.31;100.00;99557.41;1706168;84;21029;-69
2022/03/29 05:26:06;;;;;;;15.50;4.07;;;;;;;3.41;100.00;99566.78;1705642;84;21056;-69
2022/03/29 05:28:34;;;;;;;24.90;4.50;;;;;;;3.53;100.00;99563.52;1705342;83;21113;-71
2022/03/29 05:31:02;;;;;;;20.93;4.70;;;;;;;3.60;100.00;99568.16;1705745;84;21092;-68
2022/03/29 05:33:29;;;;;;;22.50;5.00;;;;;;;3.74;100.00;99570.94;1706414;84;21065;-69
2022/03/29 05:35:57;;;;;;;12.60;5.10;;;;;;;3.84;100.00;99566.08;1706731;84;21545;-68
2022/03/29 05:38:25;;;;;;;12.57;4.70;;;;;;;3.97;100.00;99570.68;1706527;84;21050;-70
2022/03/29 05:40:53;;;;;;;17.73;5.73;;;;;;;4.10;100.00;99563.20;1706624;84;21059;-71
2022/03/29 05:43:20;;;;;;;14.10;4.23;;;;;;;4.24;100.00;99569.96;1706625;84;21529;-70
2022/03/29 05:48:52;;;;;;;16.33;4.60;;;;;;;4.35;100.00;99564.44;1711620;83;21553;-70
2022/03/29 05:51:04;;;;;;;16.47;4.40;;;;;;;4.56;100.00;99561.59;1628676;88;21101;-71
2022/03/29 05:53:31;;;;;;;19.63;4.73;;;;;;;4.70;100.00;99556.78;1694882;84;21026;-71
2022/03/29 05:55:58;;;;;;;18.53;4.37;;;;;;;4.82;100.00;99557.47;1691139;83;21029;-70
2022/03/29 05:58:28;;;;;;;12.00;3.70;;;;;;;5.01;100.00;99557.40;1706650;83;21022;-70
2022/03/29 06:00:54;;;;;;;16.67;4.63;;;;;;;5.20;100.00;99547.06;1712436;83;21069;-70
2022/03/29 06:03:23;;;;;;;16.27;4.30;;;;;;;5.35;100.00;99540.73;1713804;84;21041;-69
2022/03/29 06:05:50;;;;;;;14.53;4.20;;;;;;;5.49;100.00;99549.60;1713635;84;21042;-69
2022/03/29 06:08:17;;;;;;;17.83;4.20;;;;;;;5.64;100.00;99548.58;1676944;85;21078;-69
2022/03/29 06:10:44;;;;;;;15.97;4.53;;;;;;;5.75;100.00;99562.78;1720667;83;21002;-69
2022/03/29 06:13:14;;;;;;;16.93;4.50;;;;;;;5.82;100.00;99552.61;1720763;83;21566;-71
2022/03/29 06:15:43;;;;;;;14.20;5.27;;;;;;;5.98;100.00;99561.35;1720779;83;21002;-70
2022/03/29 06:18:10;;;;;;;15.63;4.30;;;;;;;6.19;100.00;99544.94;1720928;83;21562;-69
2022/03/29 06:20:39;;;;;;;16.93;4.17;;;;;;;6.35;100.00;99538.86;1719760;82;21807;-70
2022/03/29 06:23:06;;;;;;;9.80;3.90;;;;;;;6.48;100.00;99551.90;1719791;82;21100;-73
2022/03/29 06:25:35;;;;;;;15.83;4.30;;;;;;;6.65;100.00;99559.55;1720599;83;21045;-72
2022/03/29 06:28:04;;;;;;;16.53;4.23;;;;;;;6.77;100.00;99552.92;1719585;83;21018;-70
2022/03/29 06:30:31;;;;;;;26.87;4.97;;;;;;;6.86;100.00;99552.98;1719700;83;21025;-70
2022/03/29 06:32:59;;;;;;;17.33;4.00;;;;;;;7.03;100.00;99548.88;1719485;83;21108;-70
2022/03/29 06:35:28;;;;;;;14.37;4.20;;;;;;;7.21;100.00;99549.30;1712378;83;20995;-69
2022/03/29 06:37:56;;;;;;;13.90;4.83;;;;;;;7.41;100.00;99557.94;1718453;83;21061;-70
2022/03/29 06:40:24;;;;;;;17.33;4.70;;;;;;;7.67;100.00;99563.24;1720020;82;21026;-69
2022/03/29 06:42:55;;;;;;;17.20;4.40;;;;;;;7.87;100.00;99574.55;1721223;83;21020;-70
2022/03/29 06:45:22;;;;;;;15.30;4.17;;;;;;;7.91;100.00;99557.05;1720817;83;21518;-70
2022/03/29 06:47:51;;;;;;;13.50;3.93;;;;;;;7.94;100.00;99571.53;1720457;83;21054;-70
2022/03/29 06:50:18;;;;;;;19.17;4.30;;;;;;;8.13;100.00;99569.56;1692434;82;21125;-71
2022/03/29 06:52:46;;;;;;;16.40;3.80;;;;;;;8.34;100.00;99559.64;1666994;85;21098;-73
2022/03/29 06:55:16;;;;;;;20.33;4.83;;;;;;;8.45;100.00;99558.50;1697672;83;21083;-70
2022/03/29 06:57:45;;;;;;;11.90;3.90;;;;;;;8.58;100.00;99562.02;1725616;83;21062;-70
2022/03/29 07:00:15;;;;;;;18.90;4.70;;;;;;;8.72;100.00;99562.67;1697587;83;21014;-69
2022/03/29 07:02:44;;;;;;;17.50;4.37;;;;;;;8.88;100.00;99545.62;1697904;83;21002;-70
2022/03/29 07:05:11;;;;;;;20.33;4.83;;;;;;;9.19;100.00;99549.75;1697849;83;20986;-70
2022/03/29 07:07:38;;;;;;;23.40;4.70;;;;;;;9.38;100.00;99543.59;1726022;83;21129;-70
2022/03/29 07:12:57;;;;;;;17.23;4.08;;;;;;;9.60;100.00;99519.05;1726365;83;21478;-69
2022/03/29 07:15:24;;;;;;;13.80;4.70;;;;;;;9.60;100.00;99516.34;1726294;83;21756;-69
2022/03/29 07:17:53;;;;;;;20.12;4.75;;;;;;;9.60;100.00;99513.13;1725896;83;20998;-68
2022/03/29 07:20:22;;;;;;;18.52;4.53;;;;;;;9.67;100.00;99517.31;1726251;83;21058;-69
2022/03/29 07:22:50;;;;;;;14.53;4.10;;;;;;;9.68;100.00;99514.92;1725989;83;22276;-69
2022/03/29 07:25:20;;;;;;;15.58;4.47;;;;;;;9.79;100.00;99509.62;1697898;83;21073;-70
2022/03/29 07:27:49;;;;;;;18.67;5.12;;;;;;;9.97;100.00;99516.94;1725978;82;21053;-68
2022/03/29 07:30:16;;;;;;;13.80;4.20;;;;;;;10.14;100.00;99520.34;1724406;83;20986;-69
2022/03/29 07:32:49;;;;;;;16.75;5.00;;;;;;;10.24;100.00;99517.41;1713913;83;21066;-69
2022/03/29 07:35:20;;;;;;;15.25;4.25;;;;;;;10.28;100.00;99507.91;1714569;84;21109;-68
2022/03/29 07:37:47;;;;;;;23.00;8.03;;;;;;;10.50;100.00;99510.28;1714746;84;21050;-69
2022/03/29 07:40:20;;;;;;;23.52;8.18;;;;;;;10.71;100.00;99510.06;1713763;84;21042;-73
2022/03/29 07:42:49;;;;;;;13.58;4.70;;;;;;;10.85;100.00;99493.53;1655908;87;21098;-71
2022/03/29 07:45:16;;;;;;;14.38;4.30;;;;;;;10.95;100.00;99505.74;1657142;87;21133;-69
2022/03/29 07:47:44;;;;;;;12.03;3.98;;;;;;;11.15;100.00;99499.77;1655863;87;21089;-68
2022/03/29 07:50:12;;;;;;;19.23;5.05;;;;;;;11.30;100.00;99488.94;1611975;87;21153;-71
2022/03/29 07:52:40;;;;;;;16.45;4.50;;;;;;;11.39;100.00;99489.98;1598139;88;21064;-70
2022/03/29 07:55:10;;;;;;;19.37;5.37;;;;;;;11.49;100.00;99474.80;1609663;87;21007;-69
2022/03/29 07:57:37;;;;;;;14.90;4.78;;;;;;;11.44;100.00;99494.83;1645050;86;21101;-71
2022/03/29 08:02:53;;;;;;;15.23;5.03;;;;;;;11.68;100.00;99478.73;1651342;87;21102;-69
2022/03/29 08:05:21;;;;;;;20.60;6.67;;;;;;;11.90;100.00;99482.34;1651904;86;21114;-68
2022/03/29 08:07:49;;;;;;;13.25;4.60;;;;;;;12.11;100.00;99483.35;1650842;87;21101;-70
2022/03/29 08:10:20;;;;;;;17.12;5.75;;;;;;;12.15;100.00;99423.69;1628373;87;21555;-69
2022/03/29 08:12:48;;;;;;;16.85;5.30;;;;;;;12.12;100.00;99464.19;1632607;87;21145;-70
2022/03/29 08:15:15;;;;;;;14.38;5.10;;;;;;;12.33;100.00;99472.81;1650050;87;21648;-70
2022/03/29 08:17:43;;;;;;;19.17;5.53;;;;;;;12.56;100.00;99462.77;1644131;87;21069;-71
2022/03/29 08:20:11;;;;;;;19.75;5.20;;;;;;;12.61;100.00;99457.07;1644435;87;21511;-70
2022/03/29 08:22:44;;;;;;;16.17;5.20;;;;;;;12.70;100.00;99450.44;1623339;86;21619;-71
2022/03/29 08:25:09;;;;;;;26.93;5.50;;;;;;;12.82;100.00;99456.66;1616176;87;21095;-70
2022/03/29 08:27:36;;;;;;;16.05;5.15;;;;;;;12.85;100.00;99447.59;1619313;89;21128;-70
2022/03/29 08:30:06;;;;;;;24.70;6.05;;;;;;;12.87;100.00;99448.25;1619321;89;21099;-69
2022/03/29 08:32:35;;;;;;;22.07;5.30;;;;;;;12.88;100.00;99441.77;1632701;87;21084;-71
2022/03/29 08:35:05;;;;;;;16.05;5.00;;;;;;;12.85;100.00;99441.34;1632561;87;21098;-69
2022/03/29 08:37:36;;;;;;;15.85;5.25;;;;;;;13.08;100.00;99457.32;1650127;87;21050;-71
2022/03/29 08:42:38;;;;;;;37.98;5.72;;;;;;;13.45;100.00;99432.12;1592609;90;21107;-71
2022/03/29 08:45:10;;;;;;;24.23;5.62;;;;;;;13.57;99.09;99430.48;1572639;90;21136;-71
2022/03/29 08:47:40;;;;;;;14.68;5.30;;;;;;;13.60;97.82;99428.72;1598505;90;21007;-71
2022/03/29 08:50:09;;;;;;;20.48;5.55;;;;;;;13.75;97.45;99414.94;1578860;89;21204;-70
2022/03/29 08:52:36;;;;;;;18.85;5.40;;;;;;;13.88;96.63;99413.28;1602130;89;21014;-68
2022/03/29 08:55:08;;;;;;;17.23;5.33;;;;;;;13.80;96.92;99407.53;1559725;91;21063;-71
2022/03/29 08:57:36;;;;;;;29.42;5.92;;;;;;;13.97;96.13;99402.51;1580714;91;21625;-71
2022/03/29 09:00:05;;;;;;;29.32;7.60;;;;;;;14.00;94.45;99412.44;1601131;89;21587;-71
2022/03/29 09:02:34;;;;;;;31.45;6.85;;;;;;;14.17;91.27;99434.63;1580493;91;21055;-72
2022/03/29 09:05:20;;;;;;;26.57;6.00;;;;;;;14.17;89.04;99414.77;1580524;91;21052;-71
2022/03/29 09:07:51;;;;;;;21.40;5.90;;;;;;;14.12;88.30;99414.55;1583270;89;21229;-70
2022/03/29 09:10:22;;;;;;;19.23;5.45;;;;;;;14.24;89.05;99400.11;1580645;89;21138;-69
2022/03/29 09:12:50;;;;;;;23.92;9.45;;;;;;;14.57;88.50;99403.31;1580532;89;21171;-71
2022/03/29 09:15:17;;;;;;;19.65;5.33;;;;;;;15.01;81.16;99404.97;1580160;91;21673;-70
2022/03/29 09:17:46;;;;;;;15.95;5.10;;;;;;;15.01;81.16;99404.97;1601133;89;21130;-70
2022/03/29 09:20:20;;;;;;;25.27;5.87;;;;;;;15.08;79.72;99408.50;1580244;91;21095;-72
2022/03/29 09:22:53;;;;;;;19.50;5.37;;;;;;;15.16;78.13;99372.04;1573125;89;21178;-71
2022/03/29 09:25:39;;;;;;;14.80;5.17;;;;;;;15.11;78.30;99392.27;1568085;91;21077;-73
2022/03/29 09:28:13;;;;;;;21.82;6.17;;;;;;;15.11;78.30;99392.27;1567100;91;21618;-73
2022/03/29 09:30:50;;;;;;;15.98;5.45;;;;;;;14.95;78.82;99381.34;1604524;88;21052;-70
2022/03/29 09:33:29;;;;;;;33.18;5.80;;;;;;;14.98;80.77;99389.09;1612496;89;21111;-72
2022/03/29 09:36:05;;;;;;;18.67;5.28;;;;;;;15.22;79.79;99391.58;1613224;88;21139;-70
2022/03/29 09:38:39;;;;;;;19.27;5.95;;;;;;;15.41;75.98;99393.06;1615257;87;21107;-70
2022/03/29 09:41:07;;;;;;;14.23;4.70;;;;;;;15.46;75.30;99372.28;1642629;87;21032;-71
2022/03/29 09:44:09;;;;;;;17.00;5.37;;;;;;;15.72;75.20;99376.72;1636286;87;20965;-75
2022/03/29 09:46:59;;;;;;;19.35;5.45;;;;;;;15.98;73.02;99380.31;1641437;87;21076;-74
2022/03/29 09:49:26;;;;;;;24.60;6.12;;;;;;;16.12;69.19;99359.22;1634341;87;21601;-69
2022/03/29 09:52:14;;;;;;;22.27;5.55;;;;;;;16.32;68.53;99353.06;1612751;87;21148;-69
2022/03/29 09:54:41;;;;;;;26.05;6.17;;;;;;;16.37;66.17;99354.27;1611062;87;21013;-70
2022/03/29 09:57:09;;;;;;;35.25;6.55;;;;;;;16.11;66.06;99345.27;1609324;87;21053;-74
2022/03/29 09:59:49;;;;;;;20.85;6.03;;;;;;;15.99;66.28;99356.09;1631487;87;21069;-70
2022/03/29 10:02:17;;;;;;;17.07;5.00;;;;;;;16.06;67.23;99351.92;1601308;89;21522;-74
2022/03/29 10:04:44;;;;;;;18.07;5.50;;;;;;;16.06;65.64;99339.65;1612311;87;21112;-71
2022/03/29 10:07:12;;;;;;;14.07;5.37;;;;;;;16.01;66.33;99338.16;1639343;87;21081;-71
2022/03/29 10:09:42;;;;;;;26.02;6.17;;;;;;;15.72;67.11;99347.25;1616459;87;21141;-70
2022/03/29 10:12:09;;;;;;;15.25;4.95;;;;;;;15.54;66.55;99326.22;1617491;87;21084;-71
2022/03/29 10:14:40;;;;;;;18.52;5.70;;;;;;;15.56;68.40;99341.81;1638892;87;21172;-72
2022/03/29 10:17:07;;;;;;;20.00;5.60;;;;;;;15.57;67.27;99337.51;1615274;88;21057;-70
2022/03/29 10:19:37;;;;;;;16.50;5.20;;;;;;;15.54;67.28;99342.03;1625107;88;21024;-70
2022/03/29 10:22:05;;;;;;;16.60;5.25;;;;;;;15.57;66.63;99337.51;1588908;88;21101;-70
2022/03/29 10:24:34;;;;;;;18.27;5.42;;;;;;;15.69;67.44;99330.83;1568693;91;21621;-71
2022/03/29 10:27:01;;;;;;;19.67;5.47;;;;;;;15.89;67.61;99334.77;1550410;92;21074;-70
2022/03/29 10:29:30;;;;;;;13.18;5.03;;;;;;;16.15;64.38;99316.52;1525598;93;21143;-70
2022/03/29 10:32:05;;;;;;;17.85;5.05;;;;;;;16.28;63.04;99313.63;1575351;90;21592;-70
2022/03/29 10:34:40;;;;;;;16.80;5.35;;;;;;;16.41;60.67;99312.64;1575377;91;21580;-71
2022/03/29 10:37:15;;;;;;;20.25;5.97;;;;;;;16.27;60.47;99307.89;1521967;94;21122;-70
2022/03/29 10:39:56;;;;;;;23.65;5.92;;;;;;;16.33;61.54;99310.23;1533503;93;21110;-70
2022/03/29 10:42:35;;;;;;;30.23;6.08;;;;;;;16.65;61.10;99309.55;1561991;92;21038;-69
2022/03/29 10:45:23;;;;;;;20.27;5.25;;;;;;;16.83;57.86;99305.98;1565386;89;21065;-70
2022/03/29 10:48:05;;;;;;;19.98;5.25;;;;;;;16.73;57.38;99301.56;1582391;89;21111;-70
2022/03/29 10:50:56;;;;;;;20.10;5.87;;;;;;;16.78;57.62;99295.42;1561707;91;21023;-72
2022/03/29 10:53:32;;;;;;;23.40;5.78;;;;;;;16.79;58.31;99299.83;1554946;92;21144;-71
2022/03/29 10:59:09;;;;;;;22.90;6.10;;;;;;;16.58;57.67;99263.76;1525293;93;21192;-69
2022/03/29 11:04:07;;;;;;;21.93;6.45;;;;;;;16.62;58.48;99285.42;1482004;97;21179;-70
2022/03/29 11:06:35;;;;;;;26.48;6.50;;;;;;;16.71;58.64;99268.20;1457072;97;21095;-71
2022/03/29 11:09:09;;;;;;;24.82;7.05;;;;;;;16.76;58.34;99271.63;1457012;97;21102;-70
2022/03/29 11:11:46;;;;;;;20.97;6.12;;;;;;;16.80;57.50;99277.77;1442365;98;21106;-70
2022/03/29 11:14:38;;;;;;;29.07;13.88;;;;;;;16.70;58.45;99282.94;1464524;98;21288;-70
2022/03/29 11:19:48;;;;;;;17.37;6.40;;;;;;;16.54;58.85;99253.52;1374610;102;21614;-74
2022/03/29 11:22:40;;;;;;;21.07;6.83;;;;;;;16.41;59.20;99271.72;1362423;103;21690;-70
2022/03/29 11:25:14;;;;;;;19.82;6.22;;;;;;;16.30;59.52;99269.22;1382798;103;21151;-70
2022/03/29 11:27:43;;;;;;;32.03;9.65;;;;;;;16.26;59.42;99261.20;1386734;103;21183;-75
2022/03/29 11:30:12;;;;;;;36.70;7.08;;;;;;;16.24;60.34;99254.31;1384208;104;21137;-70
2022/03/29 11:32:43;;;;;;;22.60;6.20;;;;;;;16.22;60.45;99265.45;1384024;104;21090;-72
2022/03/29 11:35:19;;;;;;;22.27;6.67;;;;;;;16.12;60.76;99260.50;1367470;104;21133;-69
2022/03/29 11:37:49;;;;;;;18.07;6.08;;;;;;;16.08;61.59;99242.94;1425734;101;21180;-70
2022/03/29 11:40:19;;;;;;;17.35;5.50;;;;;;;16.07;62.52;99252.70;1427173;101;21162;-70
2022/03/29 11:42:54;;;;;;;27.25;6.85;;;;;;;16.09;61.67;99251.95;1427198;100;21174;-69
2022/03/29 11:45:24;;;;;;;20.82;6.33;;;;;;;16.19;60.96;99228.25;1415572;100;21703;-71
2022/03/29 11:47:58;;;;;;;19.15;6.10;;;;;;;16.47;59.68;99220.88;1441763;99;21166;-70
2022/03/29 11:50:49;;;;;;;18.50;5.65;;;;;;;16.61;58.63;99225.61;1425661;99;21132;-69
2022/03/29 11:53:30;;;;;;;20.90;6.60;;;;;;;16.65;57.35;99228.20;1432847;99;21086;-71
2022/03/29 11:56:09;;;;;;;18.35;5.65;;;;;;;16.74;56.45;99221.34;1435945;99;21162;-70